Enter the Airport ICAO Code

Search by Airport or City

Current Weather

UATT | Aktobe Airport

Aktobe, Kazakhstan

Last Update 34 Minutes Ago

Clear Sky

Temperature of 13 șC

Light to Moderate Winds from SouthEast

Temperature

13 șC

Dew Point Temperature

04 șC Below Zero

Relative Humidity

30.42 %

Wind Direction

SouthEast (120ș, Without Significant Variations)

Wind Velocity

14 km/h (4 kt)

Gusts

None

Visibility

No Significant Reductions

Sea Level Pressure

1023 hPa (Hectopascals)

Layers of Clouds

None

METAR UATT 211400Z 12004MPS CAVOK 13/M04 Q1023 R12/70D NOSIG RMK QFE747/0997

Weather Forecast

UATT | Aktobe Airport

Aktobe, Kazakhstan

Forecast valid for the next 21 Hours

From now on it is expected:

Clear Sky

Light to Moderate Winds from SouthEast

In 7 to 9 hours it is expected the begining of:

Light to Moderate Winds from South

Maximum Temperature

16 șC in 21 Hours

Minimum Temperature

04 șC in 10 Hours

TAF UATT 211104Z 2112/2212 12005MPS CAVOK TX16/2212Z TN04/2201Z BECMG 2122/2124 18005MPS